createdAt,value
2023-02-25T00:00:47.289Z,50.875717
2023-02-25T00:02:02.768Z,50.875717
2023-02-25T03:39:43.964Z,50.875347
2023-02-25T03:40:43.962Z,50.875378
2023-02-25T03:41:43.945Z,50.875347
2023-02-25T03:42:43.900Z,50.875389
2023-02-25T03:43:43.932Z,50.875473
2023-02-25T03:44:43.906Z,50.875420
2023-02-25T03:45:43.931Z,50.875359
2023-02-25T03:46:43.908Z,50.875340
2023-02-25T03:47:43.950Z,50.875401
2023-02-25T03:48:43.838Z,50.875397
2023-02-25T03:49:43.840Z,50.875340
2023-02-25T03:50:44.842Z,50.875397
2023-02-25T03:51:43.828Z,50.875446
2023-02-25T03:52:43.800Z,50.875385
2023-02-25T03:53:43.789Z,50.875187
2023-02-25T03:54:43.822Z,50.875286
2023-02-25T03:55:43.778Z,50.875404
2023-02-25T03:56:44.787Z,50.875324
2023-02-25T03:57:43.746Z,50.875374
2023-02-25T03:58:43.760Z,50.875431
2023-02-25T03:59:43.786Z,50.875317
2023-02-25T04:00:43.755Z,50.875320
2023-02-25T04:01:43.716Z,50.875320
2023-02-25T04:02:43.771Z,50.875599
2023-02-25T04:03:43.682Z,50.875561
2023-02-25T04:04:43.753Z,50.875401
2023-02-25T04:05:43.721Z,50.875355
2023-02-25T04:06:43.771Z,50.875435
2023-02-25T04:07:43.710Z,50.876076
2023-02-25T04:08:43.665Z,50.876076
2023-02-25T04:09:43.649Z,50.876076
2023-02-25T04:10:43.640Z,50.876076
2023-02-25T04:11:43.661Z,50.876076
2023-02-25T04:12:43.610Z,50.876076
2023-02-25T04:13:43.607Z,50.876076
2023-02-25T04:14:43.669Z,50.875412
2023-02-25T04:15:43.692Z,50.875389
2023-02-25T04:16:43.551Z,50.875389
2023-02-25T04:17:43.588Z,50.875389
2023-02-25T04:18:43.549Z,50.875389
2023-02-25T04:19:43.595Z,50.875389
2023-02-25T04:20:43.535Z,50.875389
2023-02-25T04:21:43.510Z,50.875389
2023-02-25T04:22:43.550Z,50.875389
2023-02-25T04:23:43.515Z,50.875389
2023-02-25T04:24:43.488Z,50.875393
2023-02-25T04:25:43.484Z,50.875343
2023-02-25T04:26:43.489Z,50.875343
2023-02-25T04:27:43.461Z,50.875343
2023-02-25T04:28:43.473Z,50.875343
2023-02-25T04:29:43.439Z,50.875343
2023-02-25T04:30:43.606Z,50.875343
2023-02-25T04:31:43.522Z,50.875343
2023-02-25T04:32:43.456Z,50.875343
2023-02-25T04:33:43.407Z,50.875343
2023-02-25T04:34:43.407Z,50.875343
2023-02-25T04:35:43.386Z,50.875343
2023-02-25T04:36:43.377Z,50.875343
2023-02-25T04:37:43.360Z,50.875343
2023-02-25T04:38:43.387Z,50.875343
2023-02-25T04:39:43.336Z,50.875343
2023-02-25T04:40:43.381Z,50.875343
2023-02-25T04:41:43.316Z,50.875343
2023-02-25T04:42:43.331Z,50.875343
2023-02-25T04:43:43.295Z,50.875343
2023-02-25T04:44:43.278Z,50.875343
2023-02-25T04:45:44.287Z,50.875343
2023-02-25T04:46:43.320Z,50.875343
2023-02-25T04:47:43.250Z,50.875343
2023-02-25T04:48:43.385Z,50.875343
2023-02-25T04:49:43.266Z,50.875343
2023-02-25T04:50:43.265Z,50.875343
2023-02-25T04:51:43.266Z,50.875343
2023-02-25T04:52:43.244Z,50.875343
2023-02-25T04:53:43.254Z,50.875343
2023-02-25T04:54:43.199Z,50.875343
2023-02-25T04:55:43.196Z,50.875343
2023-02-25T04:56:43.229Z,50.875343
2023-02-25T04:57:43.171Z,50.875343
2023-02-25T04:58:43.184Z,50.875343
2023-02-25T04:59:43.165Z,50.875343
2023-02-25T05:00:43.153Z,50.875343
2023-02-25T05:01:43.238Z,50.875343
2023-02-25T05:02:43.100Z,50.875343
2023-02-25T05:03:43.146Z,50.875343
2023-02-25T05:04:43.162Z,50.875343
2023-02-25T05:05:43.067Z,50.875343
2023-02-25T05:06:43.091Z,50.875343
2023-02-25T05:07:43.054Z,50.875343
2023-02-25T05:08:43.044Z,50.875343
2023-02-25T05:09:44.063Z,50.875343
2023-02-25T05:10:43.052Z,50.875343
2023-02-25T05:11:43.045Z,50.875343
2023-02-25T05:12:43.046Z,50.875343
2023-02-25T05:13:42.993Z,50.875343
2023-02-25T05:14:42.992Z,50.875343
2023-02-25T05:15:42.996Z,50.875343
2023-02-25T05:16:43.097Z,50.875343
2023-02-25T05:17:42.987Z,50.875343
2023-02-25T05:18:42.964Z,50.875343
2023-02-25T05:19:42.940Z,50.875343
2023-02-25T05:20:43.038Z,50.875343
2023-02-25T05:21:42.940Z,50.875343
2023-02-25T05:22:42.925Z,50.875343
2023-02-25T05:23:42.883Z,50.875343
2023-02-25T05:24:42.912Z,50.875343
2023-02-25T05:25:42.880Z,50.875343
2023-02-25T05:26:42.878Z,50.875343
2023-02-25T05:27:42.888Z,50.875343
2023-02-25T05:28:42.823Z,50.875343
2023-02-25T05:29:42.867Z,50.875343
2023-02-25T05:30:42.841Z,50.875343
2023-02-25T05:31:42.984Z,50.875343
2023-02-25T05:32:42.908Z,50.875343
2023-02-25T05:33:42.795Z,50.875343
2023-02-25T05:34:42.791Z,50.875343
2023-02-25T05:35:42.795Z,50.875343
2023-02-25T05:36:42.780Z,50.875343
2023-02-25T05:37:42.772Z,50.875343
2023-02-25T05:38:42.727Z,50.875473
2023-02-25T05:39:42.748Z,50.875381
2023-02-25T05:40:42.766Z,50.875381
2023-02-25T05:41:42.710Z,50.875381
2023-02-25T05:42:42.722Z,50.875381
2023-02-25T05:43:42.709Z,50.876904
2023-02-25T05:44:42.679Z,50.877167
2023-02-25T05:45:42.712Z,50.874870
2023-02-25T05:46:42.756Z,50.875278
2023-02-25T05:47:42.714Z,50.879738
2023-02-25T05:48:42.638Z,50.886856
2023-02-25T05:49:42.641Z,50.909321
2023-02-25T05:50:43.862Z,50.930241
2023-02-25T05:51:42.650Z,50.930241
2023-02-25T05:52:42.634Z,50.930241
2023-02-25T05:53:42.657Z,50.930241
2023-02-25T05:54:42.568Z,50.930241
2023-02-25T05:55:42.579Z,50.930241
2023-02-25T05:56:42.549Z,50.930241
2023-02-25T05:57:42.590Z,50.930241
2023-02-25T05:58:42.578Z,50.875164
2023-02-25T05:59:42.569Z,50.875347
2023-02-25T06:00:42.563Z,50.875336
2023-02-25T06:01:42.527Z,50.875336
2023-02-25T06:02:42.577Z,50.875385
2023-02-25T06:03:42.502Z,50.874973
2023-02-25T06:04:42.493Z,50.875237
2023-02-25T06:05:42.511Z,50.875248
2023-02-25T06:06:42.491Z,50.875336
2023-02-25T06:07:42.476Z,50.875385
2023-02-25T06:08:42.475Z,50.875385
2023-02-25T06:09:42.428Z,50.875237
2023-02-25T06:10:42.446Z,50.875267
2023-02-25T06:11:42.431Z,50.875263
2023-02-25T06:12:42.410Z,50.875294
2023-02-25T06:13:42.438Z,50.875233
2023-02-25T06:14:42.425Z,50.875233
2023-02-25T06:15:42.370Z,50.875233
2023-02-25T06:16:42.521Z,50.875233
2023-02-25T06:17:42.375Z,50.875233
2023-02-25T06:18:42.354Z,50.874756
2023-02-25T06:19:42.326Z,50.875561
2023-02-25T06:20:42.376Z,50.875805
2023-02-25T06:21:42.315Z,50.876415
2023-02-25T06:22:42.329Z,50.874226
2023-02-25T06:23:42.316Z,50.875767
2023-02-25T06:24:42.279Z,50.875793
2023-02-25T06:25:42.303Z,50.875797
2023-02-25T06:26:42.292Z,50.875797
2023-02-25T06:27:42.287Z,50.875629
2023-02-25T06:28:42.276Z,50.875759
2023-02-25T06:29:42.239Z,50.875740
2023-02-25T06:30:42.286Z,50.875740
2023-02-25T06:31:42.387Z,50.875740
2023-02-25T06:32:42.252Z,50.875740
2023-02-25T06:33:42.271Z,50.875740
2023-02-25T06:34:42.331Z,50.875740
2023-02-25T06:35:42.182Z,50.875740
2023-02-25T06:36:42.218Z,50.875740
2023-02-25T06:37:42.191Z,50.875740
2023-02-25T06:38:42.183Z,50.875740
2023-02-25T06:39:42.148Z,50.875740
2023-02-25T06:40:42.131Z,50.875740
2023-02-25T06:41:42.165Z,50.875740
2023-02-25T06:42:42.115Z,50.875740
2023-02-25T06:43:42.100Z,50.875740
2023-02-25T06:44:42.084Z,50.875740
2023-02-25T06:45:42.137Z,50.875740
2023-02-25T06:46:42.059Z,50.875740
2023-02-25T06:47:42.092Z,50.876221
2023-02-25T06:48:42.175Z,50.876781
2023-02-25T06:49:42.112Z,50.876511
2023-02-25T06:50:42.032Z,50.876427
2023-02-25T06:51:42.005Z,50.876427
2023-02-25T06:52:42.042Z,50.876160
2023-02-25T06:53:42.041Z,50.876160
2023-02-25T06:54:41.946Z,50.876160
2023-02-25T06:55:42.107Z,50.875481
2023-02-25T06:56:41.977Z,50.875607
2023-02-25T06:57:41.957Z,50.875637
2023-02-25T06:58:42.005Z,50.875477
2023-02-25T06:59:42.002Z,50.875477
2023-02-25T07:00:41.936Z,50.875675
2023-02-25T07:01:42.001Z,50.875546
2023-02-25T07:02:41.933Z,50.875534
2023-02-25T07:03:41.920Z,50.875534
2023-02-25T07:04:43.977Z,50.875381
2023-02-25T07:05:42.907Z,50.875423
2023-02-25T07:06:41.925Z,50.875423
2023-02-25T07:07:41.845Z,50.875423
2023-02-25T07:08:41.894Z,50.875423
2023-02-25T07:09:41.831Z,50.875423
2023-02-25T07:10:41.874Z,50.875423
2023-02-25T07:11:41.837Z,50.875423
2023-02-25T07:12:41.821Z,50.875423
2023-02-25T07:13:41.954Z,50.875423
2023-02-25T07:14:41.899Z,50.875423
2023-02-25T07:15:41.967Z,50.875423
2023-02-25T07:16:41.923Z,50.875423
2023-02-25T07:17:41.896Z,50.875423
2023-02-25T07:18:41.855Z,50.875423
2023-02-25T07:19:41.762Z,50.875423
2023-02-25T07:20:41.771Z,50.875423
2023-02-25T07:21:41.734Z,50.875423
2023-02-25T07:22:41.815Z,50.875423
2023-02-25T07:23:41.800Z,50.875423
2023-02-25T07:24:41.698Z,50.875423
2023-02-25T07:25:41.738Z,50.875423
2023-02-25T07:26:41.698Z,50.875423
2023-02-25T07:27:44.400Z,50.875423
2023-02-25T07:28:42.713Z,50.875423
2023-02-25T07:29:41.689Z,50.875423
2023-02-25T07:30:41.777Z,50.875423
2023-02-25T07:31:41.791Z,50.875423
2023-02-25T07:32:41.813Z,50.875423
2023-02-25T07:33:41.804Z,50.875423
2023-02-25T07:34:41.723Z,50.875423
2023-02-25T07:35:41.718Z,50.875423
2023-02-25T07:36:41.710Z,50.875423
2023-02-25T07:37:41.600Z,50.875423
2023-02-25T07:38:42.396Z,50.875423
2023-02-25T07:39:42.056Z,50.875423
2023-02-25T07:40:41.675Z,50.875423
2023-02-25T07:41:41.580Z,50.875423
2023-02-25T07:42:41.542Z,50.875423
2023-02-25T07:43:41.587Z,50.875423
2023-02-25T07:44:41.541Z,50.875423
2023-02-25T07:45:41.693Z,50.875423
2023-02-25T07:46:41.725Z,50.875423
2023-02-25T07:47:41.590Z,50.875423
2023-02-25T07:48:41.519Z,50.875423
2023-02-25T07:49:41.943Z,50.875423
2023-02-25T07:50:41.417Z,50.875423
